Time;durP1;ratioP1;P1;durP2;ratioP2;P2;SDS_P1;SDS_P2;PMS_P1;PMS_P2;Temp;Humidity;BMP_temperature;BMP_pressure;BME280_temperature;BME280_humidity;BME280_pressure;Samples;Min_cycle;Max_cycle;Signal;HPM_P1;HPM_P2
2022/12/13 00:00:30;;;;;;;;;;;;;;;6.54;69.19;94578.69;5034317;28;1112;-66
2022/12/13 00:02:56;;;;;;;;;;;;;;;6.49;68.87;94588.94;5034209;28;1025;-66
2022/12/13 00:05:22;;;;;;;;;;;;;;;6.43;69.34;94583.25;5033850;28;1989;-66
2022/12/13 00:07:48;;;;;;;;;;;;;;;6.48;70.11;94589.91;5034022;28;975;-66
2022/12/13 00:10:14;;;;;;;;;;;;;;;6.43;69.96;94587.69;5016717;28;1030;-66
2022/12/13 00:12:40;;;;;;;;;;;;;;;6.36;70.48;94592.78;5034075;28;1024;-65
2022/12/13 00:15:07;;;;;;;;;;;;;;;6.37;70.35;94594.44;5034074;28;1058;-65
2022/12/13 00:17:33;;;;;;;;;;;;;;;6.47;69.94;94601.53;5033744;28;1093;-66
2022/12/13 00:19:59;;;;;;;;;;;;;;;6.42;69.45;94615.25;5033868;28;974;-66
2022/12/13 00:22:25;;;;;;;;;;;;;;;6.37;69.43;94606.88;5033688;28;1117;-66
2022/12/13 00:24:52;;;;;;;;;;;;;;;6.39;68.76;94608.44;5033968;28;1016;-66
2022/12/13 00:27:18;;;;;;;;;;;;;;;6.30;69.13;94611.97;5033163;28;1906;-66
2022/12/13 00:29:44;;;;;;;;;;;;;;;6.36;68.32;94608.72;5033582;28;1124;-66
2022/12/13 00:32:10;;;;;;;;;;;;;;;6.48;68.22;94609.34;5033642;28;1053;-66
2022/12/13 00:34:36;;;;;;;;;;;;;;;6.38;67.70;94619.19;5033544;28;1026;-66
2022/12/13 00:37:03;;;;;;;;;;;;;;;6.20;68.76;94617.34;5033772;28;1042;-66
2022/12/13 00:39:29;;;;;;;;;;;;;;;6.36;67.06;94624.66;5024005;28;1151;-66
2022/12/13 00:41:55;;;;;;;;;;;;;;;6.36;67.10;94614.03;5013918;28;1086;-66
2022/12/13 00:44:21;;;;;;;;;;;;;;;6.34;66.95;94625.78;5013705;28;1050;-66
2022/12/13 00:46:50;;;;;;;;;;;;;;;6.25;66.80;94617.72;4996250;28;1914;-66
2022/12/13 00:49:16;;;;;;;;;;;;;;;6.27;66.57;94625.53;5013718;28;1037;-65
2022/12/13 00:51:42;;;;;;;;;;;;;;;6.26;67.46;94626.53;5013513;28;1062;-66
2022/12/13 00:54:08;;;;;;;;;;;;;;;6.16;67.07;94620.41;5013805;28;975;-66
2022/12/13 00:56:35;;;;;;;;;;;;;;;6.23;68.45;94624.16;5013686;28;960;-66
2022/12/13 00:59:03;;;;;;;;;;;;;;;6.22;68.59;94619.81;5013665;28;1093;-66
2022/12/13 01:01:31;;;;;;;;;;;;;;;6.27;68.32;94619.41;5013539;28;1039;-66
2022/12/13 01:03:58;;;;;;;;;;;;;;;6.07;68.91;94619.50;5013491;28;959;-66
2022/12/13 01:06:32;;;;;;;;;;;;;;;6.00;70.17;94619.22;5013174;28;1906;-66
2022/12/13 01:08:59;;;;;;;;;;;;;;;6.08;69.44;94622.97;5013482;28;1062;-66
2022/12/13 01:11:25;;;;;;;;;;;;;;;6.03;69.31;94634.88;5013499;28;1030;-66
2022/12/13 01:13:51;;;;;;;;;;;;;;;6.03;70.28;94634.03;5013551;28;1006;-66
2022/12/13 01:16:17;;;;;;;;;;;;;;;6.02;70.55;94632.34;5013462;28;1038;-66
2022/12/13 01:18:44;;;;;;;;;;;;;;;6.10;70.16;94635.09;5013319;28;985;-66
2022/12/13 01:21:12;;;;;;;;;;;;;;;5.93;70.95;94633.19;5013630;28;970;-66
2022/12/13 01:23:38;;;;;;;;;;;;;;;5.74;70.16;94632.28;5013272;28;1045;-66
2022/12/13 01:26:06;;;;;;;;;;;;;;;5.78;70.63;94638.13;5013452;28;1984;-66
2022/12/13 01:28:32;;;;;;;;;;;;;;;5.85;70.13;94631.28;5013323;28;997;-66
2022/12/13 01:30:59;;;;;;;;;;;;;;;5.93;69.10;94636.69;5013353;28;990;-66
2022/12/13 01:33:25;;;;;;;;;;;;;;;5.80;69.88;94637.00;5013087;28;1136;-65
2022/12/13 01:35:52;;;;;;;;;;;;;;;5.69;70.14;94647.78;5013439;28;1009;-65
2022/12/13 01:38:18;;;;;;;;;;;;;;;5.70;69.46;94646.81;5013404;28;1178;-65
2022/12/13 01:40:45;;;;;;;;;;;;;;;5.64;69.02;94642.91;5017121;28;1108;-66
2022/12/13 01:43:13;;;;;;;;;;;;;;;5.75;69.47;94646.38;5017059;28;1021;-66
2022/12/13 01:45:39;;;;;;;;;;;;;;;5.86;67.98;94644.41;5016739;28;1911;-65
2022/12/13 01:48:07;;;;;;;;;;;;;;;5.94;68.72;94651.63;5016916;28;1108;-66
2022/12/13 01:50:37;;;;;;;;;;;;;;;6.05;68.22;94647.97;5016969;28;963;-65
2022/12/13 01:53:05;;;;;;;;;;;;;;;6.10;67.78;94651.03;5016877;28;956;-66
2022/12/13 01:55:33;;;;;;;;;;;;;;;6.06;67.89;94642.53;5016772;28;1114;-66
2022/12/13 01:58:00;;;;;;;;;;;;;;;6.04;67.48;94633.88;5016799;28;1093;-65
2022/12/13 02:00:26;;;;;;;;;;;;;;;6.06;67.64;94639.88;5016571;28;1229;-65
2022/12/13 02:02:55;;;;;;;;;;;;;;;6.02;67.72;94635.84;5016905;28;962;-66
2022/12/13 02:05:23;;;;;;;;;;;;;;;6.11;66.95;94633.28;5016277;28;1906;-66
2022/12/13 02:07:49;;;;;;;;;;;;;;;6.14;67.58;94638.31;4999122;28;1054;-66
2022/12/13 02:10:16;;;;;;;;;;;;;;;6.19;67.93;94641.38;5016455;28;1042;-65
2022/12/13 02:12:42;;;;;;;;;;;;;;;6.09;67.49;94645.88;5016306;28;1046;-64
2022/12/13 02:15:13;;;;;;;;;;;;;;;6.06;67.71;94645.19;5016352;28;1022;-65
2022/12/13 02:17:41;;;;;;;;;;;;;;;6.12;68.03;94661.50;5016555;28;1054;-65
2022/12/13 02:20:13;;;;;;;;;;;;;;;6.11;68.13;94666.00;5016318;28;1062;-65
2022/12/13 02:22:45;;;;;;;;;;;;;;;6.04;68.97;94663.06;5016333;28;1046;-66
2022/12/13 02:25:23;;;;;;;;;;;;;;;6.00;69.05;94661.69;5016150;28;1902;-65
2022/12/13 02:28:02;;;;;;;;;;;;;;;5.93;70.03;94660.56;4998725;28;1065;-64
2022/12/13 02:30:29;;;;;;;;;;;;;;;5.90;69.64;94660.88;5016031;28;1059;-65
2022/12/13 02:32:55;;;;;;;;;;;;;;;5.95;70.06;94663.06;5016230;28;1053;-65
2022/12/13 02:35:25;;;;;;;;;;;;;;;5.91;69.46;94651.91;4998741;28;1039;-64
2022/12/13 02:37:59;;;;;;;;;;;;;;;5.88;69.91;94654.88;5016109;28;1026;-65
2022/12/13 02:40:28;;;;;;;;;;;;;;;5.86;69.64;94659.47;5033079;28;1214;-65
2022/12/13 02:43:03;;;;;;;;;;;;;;;5.67;69.85;94650.59;5035893;28;1074;-65
2022/12/13 02:45:37;;;;;;;;;;;;;;;5.69;69.54;94647.78;5035615;28;1907;-65
2022/12/13 02:48:03;;;;;;;;;;;;;;;5.75;69.52;94635.75;5035697;28;1060;-65
2022/12/13 02:50:31;;;;;;;;;;;;;;;5.79;68.13;94637.16;5034738;28;1122;-65
2022/12/13 02:52:58;;;;;;;;;;;;;;;5.90;69.12;94641.44;5035392;28;1118;-65
2022/12/13 02:55:24;;;;;;;;;;;;;;;5.99;68.29;94651.22;5035737;28;958;-65
2022/12/13 02:57:50;;;;;;;;;;;;;;;5.71;69.92;94647.63;5035571;28;982;-66
2022/12/13 03:00:19;;;;;;;;;;;;;;;5.73;69.34;94643.03;5035494;28;1013;-66
2022/12/13 03:02:45;;;;;;;;;;;;;;;5.84;68.99;94645.50;5035310;28;1050;-65
2022/12/13 03:08:05;;;;;;;;;;;;;;;5.91;68.68;94654.56;5035250;28;1117;-66
2022/12/13 03:10:42;;;;;;;;;;;;;;;5.88;68.94;94649.56;5035275;28;1050;-65
2022/12/13 03:16:02;;;;;;;;;;;;;;;5.67;69.49;94645.28;5035382;28;1049;-66
2022/12/13 03:18:29;;;;;;;;;;;;;;;5.40;70.16;94640.72;5035103;28;1046;-66
2022/12/13 03:20:56;;;;;;;;;;;;;;;5.22;70.25;94645.09;5034915;28;1199;-66
2022/12/13 03:23:23;;;;;;;;;;;;;;;5.09;71.12;94648.84;5034883;28;1128;-66
2022/12/13 03:25:54;;;;;;;;;;;;;;;5.12;71.07;94641.59;5034678;28;1999;-66
2022/12/13 03:28:21;;;;;;;;;;;;;;;5.11;71.57;94646.06;5034725;28;1058;-65
2022/12/13 03:30:47;;;;;;;;;;;;;;;5.09;71.40;94645.38;5034852;28;970;-66
2022/12/13 03:33:13;;;;;;;;;;;;;;;5.06;71.33;94635.03;5034942;28;982;-66
2022/12/13 03:35:40;;;;;;;;;;;;;;;5.12;71.40;94631.81;5034602;28;1580;-65
2022/12/13 03:38:06;;;;;;;;;;;;;;;4.98;71.34;94638.38;5034735;28;966;-66
2022/12/13 03:40:33;;;;;;;;;;;;;;;4.99;70.75;94644.50;5016132;28;1155;-65
2022/12/13 03:42:59;;;;;;;;;;;;;;;4.93;71.49;94655.69;5014724;28;1112;-66
2022/12/13 03:45:25;;;;;;;;;;;;;;;4.92;72.00;94648.72;5014629;28;1898;-65
2022/12/13 03:47:51;;;;;;;;;;;;;;;4.97;71.81;94646.47;5014868;28;1046;-66
2022/12/13 03:50:17;;;;;;;;;;;;;;;4.95;71.30;94643.13;5014784;28;966;-66
2022/12/13 03:52:43;;;;;;;;;;;;;;;4.89;71.67;94650.69;5014662;28;1066;-66
2022/12/13 03:55:09;;;;;;;;;;;;;;;4.94;71.42;94657.38;5014562;28;1117;-65
2022/12/13 03:57:35;;;;;;;;;;;;;;;4.88;71.33;94656.94;5014378;28;967;-65
2022/12/13 04:00:02;;;;;;;;;;;;;;;4.95;71.38;94661.66;4997330;28;1026;-65
2022/12/13 04:02:28;;;;;;;;;;;;;;;5.04;70.81;94671.44;5013644;28;1056;-66
2022/12/13 04:04:54;;;;;;;;;;;;;;;5.01;71.00;94671.75;5014583;28;1029;-66
2022/12/13 04:07:20;;;;;;;;;;;;;;;4.97;70.88;94679.13;5014261;28;1977;-66
2022/12/13 04:09:46;;;;;;;;;;;;;;;4.97;70.70;94673.81;5014261;28;1108;-65
2022/12/13 04:14:57;;;;;;;;;;;;;;;5.09;70.51;94687.78;5014201;28;1035;-65
2022/12/13 04:17:23;;;;;;;;;;;;;;;5.20;69.83;94700.88;5014272;28;1281;-65
2022/12/13 04:19:49;;;;;;;;;;;;;;;5.31;69.47;94701.72;4996679;28;1030;-66
2022/12/13 04:22:15;;;;;;;;;;;;;;;5.01;69.82;94698.22;5014198;28;1031;-65
2022/12/13 04:24:41;;;;;;;;;;;;;;;5.03;70.28;94712.19;5013906;28;1039;-66
2022/12/13 04:27:07;;;;;;;;;;;;;;;5.17;70.21;94714.41;5013949;28;1906;-65
2022/12/13 04:29:33;;;;;;;;;;;;;;;5.33;69.83;94718.31;5014062;28;1122;-65
2022/12/13 04:31:59;;;;;;;;;;;;;;;5.37;68.49;94706.44;5013902;28;1090;-66
2022/12/13 04:34:25;;;;;;;;;;;;;;;5.42;68.79;94714.81;5013917;28;935;-65
2022/12/13 04:36:51;;;;;;;;;;;;;;;5.42;69.08;94720.94;5013835;28;1125;-65
2022/12/13 04:39:17;;;;;;;;;;;;;;;5.34;69.04;94717.34;5021778;28;1190;-65
2022/12/13 04:41:43;;;;;;;;;;;;;;;5.41;68.14;94718.47;5033341;28;975;-66
2022/12/13 04:44:09;;;;;;;;;;;;;;;5.44;67.89;94719.03;5033763;28;993;-65
2022/12/13 04:46:36;;;;;;;;;;;;;;;5.45;67.66;94717.19;5033458;28;1910;-66
2022/12/13 04:49:02;;;;;;;;;;;;;;;5.51;68.29;94723.75;5033584;28;966;-66
2022/12/13 04:51:28;;;;;;;;;;;;;;;5.16;68.74;94719.84;5033419;28;1040;-65
2022/12/13 04:53:54;;;;;;;;;;;;;;;5.15;68.68;94726.97;5033398;28;1025;-66
2022/12/13 04:56:20;;;;;;;;;;;;;;;5.08;68.82;94732.00;5033335;28;1060;-66
2022/12/13 04:58:46;;;;;;;;;;;;;;;4.87;69.27;94736.53;5033428;28;1041;-67
2022/12/13 05:01:12;;;;;;;;;;;;;;;4.83;68.59;94735.97;5033474;28;1011;-67
2022/12/13 05:03:39;;;;;;;;;;;;;;;4.76;69.13;94742.81;5033199;28;1057;-69
2022/12/13 05:06:05;;;;;;;;;;;;;;;4.67;69.02;94740.97;5033079;28;2017;-67
2022/12/13 05:08:31;;;;;;;;;;;;;;;4.99;68.71;94747.84;5033219;28;1017;-69
2022/12/13 05:10:58;;;;;;;;;;;;;;;5.16;68.62;94749.00;5033162;28;1076;-68
2022/12/13 05:13:24;;;;;;;;;;;;;;;5.27;67.93;94756.81;5033607;28;1046;-66
2022/12/13 05:15:53;;;;;;;;;;;;;;;5.27;68.57;94752.38;5037447;28;1330;-67
2022/12/13 05:18:19;;;;;;;;;;;;;;;5.36;67.78;94757.81;5037248;28;1097;-65
2022/12/13 05:20:45;;;;;;;;;;;;;;;5.29;68.48;94757.50;5037239;28;942;-64
2022/12/13 05:23:12;;;;;;;;;;;;;;;5.29;68.43;94760.16;5037164;28;1122;-66
2022/12/13 05:25:38;;;;;;;;;;;;;;;5.38;68.46;94766.47;5036981;28;1989;-66
2022/12/13 05:28:04;;;;;;;;;;;;;;;5.42;67.42;94765.19;5019748;28;969;-65
2022/12/13 05:30:30;;;;;;;;;;;;;;;5.44;67.11;94779.16;5037110;28;995;-67
2022/12/13 05:32:56;;;;;;;;;;;;;;;5.40;67.31;94789.19;5037137;28;1010;-66
2022/12/13 05:35:23;;;;;;;;;;;;;;;5.39;67.64;94784.06;5037043;28;1045;-66
2022/12/13 05:37:51;;;;;;;;;;;;;;;5.37;67.04;94770.94;5036897;28;958;-67
2022/12/13 05:40:17;;;;;;;;;;;;;;;5.25;66.77;94778.19;5020592;28;1231;-66
2022/12/13 05:42:43;;;;;;;;;;;;;;;5.13;67.92;94778.44;5017183;28;1046;-66
2022/12/13 05:45:10;;;;;;;;;;;;;;;5.08;67.56;94770.88;5017214;28;970;-67
2022/12/13 05:47:37;;;;;;;;;;;;;;;5.15;68.33;94771.19;5016943;28;1906;-67
2022/12/13 05:50:03;;;;;;;;;;;;;;;5.11;68.04;94775.09;5017059;28;1038;-67
2022/12/13 05:52:29;;;;;;;;;;;;;;;4.68;68.42;94769.94;5016759;28;1042;-67
2022/12/13 05:54:55;;;;;;;;;;;;;;;4.75;69.49;94769.41;5016734;28;1066;-66
2022/12/13 05:57:22;;;;;;;;;;;;;;;4.71;68.97;94774.16;5017044;28;1057;-65
2022/12/13 05:59:48;;;;;;;;;;;;;;;4.67;69.59;94770.09;5016851;28;994;-65
2022/12/13 06:02:16;;;;;;;;;;;;;;;4.81;69.00;94772.34;5016834;28;1061;-65
2022/12/13 06:04:43;;;;;;;;;;;;;;;4.88;69.00;94767.38;5016527;28;1121;-66
2022/12/13 06:07:09;;;;;;;;;;;;;;;4.95;68.86;94763.22;5016362;28;1984;-65
2022/12/13 06:09:35;;;;;;;;;;;;;;;4.91;68.48;94764.44;5016673;28;1057;-66
2022/12/13 06:12:01;;;;;;;;;;;;;;;4.85;68.66;94773.75;5016448;28;1113;-65
2022/12/13 06:14:28;;;;;;;;;;;;;;;4.82;68.81;94776.69;5016623;28;1235;-65
2022/12/13 06:16:54;;;;;;;;;;;;;;;4.87;68.77;94785.03;5016145;28;1171;-64
2022/12/13 06:19:22;;;;;;;;;;;;;;;4.86;68.06;94783.38;4999094;28;1378;-64
2022/12/13 06:21:52;;;;;;;;;;;;;;;4.79;68.66;94787.53;5016155;28;1105;-66
2022/12/13 06:24:19;;;;;;;;;;;;;;;4.65;67.67;94778.16;5016644;28;978;-65
2022/12/13 06:26:45;;;;;;;;;;;;;;;4.67;68.58;94773.56;5015166;28;1930;-66
2022/12/13 06:29:12;;;;;;;;;;;;;;;4.77;68.34;94776.25;4998977;28;1044;-66
2022/12/13 06:31:39;;;;;;;;;;;;;;;4.87;67.96;94786.88;5016157;28;1022;-66
2022/12/13 06:34:05;;;;;;;;;;;;;;;4.91;67.83;94790.09;5016092;28;1066;-65
2022/12/13 06:36:31;;;;;;;;;;;;;;;4.94;68.31;94797.78;5015904;28;1101;-64
2022/12/13 06:39:00;;;;;;;;;;;;;;;4.94;68.39;94792.47;5015918;28;1226;-63
2022/12/13 06:41:26;;;;;;;;;;;;;;;5.21;67.56;94792.66;5015963;28;1010;-64
2022/12/13 06:43:52;;;;;;;;;;;;;;;5.29;66.80;94797.28;5016014;28;954;-63
2022/12/13 06:46:19;;;;;;;;;;;;;;;5.22;66.56;94794.34;5015756;28;1906;-63
2022/12/13 06:48:45;;;;;;;;;;;;;;;5.20;66.46;94801.59;5015626;28;1125;-64
2022/12/13 06:51:11;;;;;;;;;;;;;;;5.22;66.87;94802.31;5015650;28;1097;-63
2022/12/13 06:53:38;;;;;;;;;;;;;;;5.31;66.41;94805.91;4998228;28;1071;-63
2022/12/13 06:56:12;;;;;;;;;;;;;;;5.33;66.55;94811.09;5015824;28;970;-63
2022/12/13 06:58:39;;;;;;;;;;;;;;;5.37;65.92;94807.19;4998179;28;1050;-64
2022/12/13 07:01:06;;;;;;;;;;;;;;;5.41;65.27;94804.13;5031174;28;1582;-63
2022/12/13 07:03:33;;;;;;;;;;;;;;;5.36;64.67;94805.53;5015445;28;965;-63
2022/12/13 07:06:02;;;;;;;;;;;;;;;5.33;64.80;94803.13;5000882;28;1972;-64
2022/12/13 07:08:28;;;;;;;;;;;;;;;5.04;65.71;94804.75;5014193;28;1077;-64
2022/12/13 07:10:55;;;;;;;;;;;;;;;5.08;64.99;94807.97;5015584;28;1049;-64
2022/12/13 07:13:21;;;;;;;;;;;;;;;5.19;66.24;94815.81;5015355;28;1046;-64
2022/12/13 07:15:48;;;;;;;;;;;;;;;5.16;64.72;94824.06;5014119;28;1049;-63
2022/12/13 07:18:14;;;;;;;;;;;;;;;5.13;64.51;94816.38;5014042;28;1029;-65
2022/12/13 07:20:40;;;;;;;;;;;;;;;5.11;64.83;94806.88;5015197;28;1074;-64
2022/12/13 07:23:06;;;;;;;;;;;;;;;5.07;64.97;94814.28;5015079;28;1126;-66
2022/12/13 07:25:32;;;;;;;;;;;;;;;5.25;65.33;94820.59;5014940;28;1985;-65
2022/12/13 07:27:59;;;;;;;;;;;;;;;5.48;63.16;94826.47;5015242;28;986;-66
2022/12/13 07:30:25;;;;;;;;;;;;;;;5.47;62.74;94829.25;5015058;28;1045;-65
2022/12/13 07:32:51;;;;;;;;;;;;;;;5.25;64.06;94841.78;5015053;28;951;-65
2022/12/13 07:35:17;;;;;;;;;;;;;;;5.54;64.70;94843.66;5011743;28;1216;-65
2022/12/13 07:37:44;;;;;;;;;;;;;;;5.70;63.55;94844.91;5013572;28;1411;-66
2022/12/13 07:40:10;;;;;;;;;;;;;;;5.66;62.21;94847.84;5030074;28;1253;-66
2022/12/13 07:42:36;;;;;;;;;;;;;;;5.51;63.16;94840.44;5033309;28;1057;-66
2022/12/13 07:45:02;;;;;;;;;;;;;;;5.73;63.41;94845.47;5034594;28;1133;-65
2022/12/13 07:47:31;;;;;;;;;;;;;;;5.66;61.81;94847.84;5013404;28;1918;-65
2022/12/13 07:49:57;;;;;;;;;;;;;;;5.81;62.83;94844.78;5014983;28;975;-65
2022/12/13 07:52:24;;;;;;;;;;;;;;;6.00;62.81;94843.97;5014850;28;1065;-65
2022/12/13 07:54:49;;;;;;;;;;;;;;;6.19;62.31;94845.78;5014732;28;959;-65
2022/12/13 07:57:15;;;;;;;;;;;;;;;6.30;61.74;94852.72;5014540;28;1209;-65
2022/12/13 07:59:42;;;;;;;;;;;;;;;6.23;61.15;94853.31;5014578;28;997;-65
2022/12/13 08:02:11;;;;;;;;;;;;;;;6.09;61.76;94850.25;5014534;28;969;-64
2022/12/13 08:04:37;;;;;;;;;;;;;;;6.16;61.18;94859.31;5013482;28;1076;-65
2022/12/13 08:07:07;;;;;;;;;;;;;;;6.05;60.85;94855.84;5014070;28;1918;-66
2022/12/13 08:09:33;;;;;;;;;;;;;;;5.86;60.39;94853.16;5014400;28;962;-65
2022/12/13 08:12:00;;;;;;;;;;;;;;;5.54;61.34;94846.31;5014489;28;1070;-65
2022/12/13 08:14:26;;;;;;;;;;;;;;;5.51;62.11;94846.56;5014327;28;959;-65
2022/12/13 08:16:52;;;;;;;;;;;;;;;5.76;62.95;94847.84;5013982;28;1269;-65
2022/12/13 08:19:18;;;;;;;;;;;;;;;5.98;61.55;94846.75;5014446;28;986;-65
2022/12/13 08:21:44;;;;;;;;;;;;;;;6.15;62.01;94844.38;5014354;28;994;-65
2022/12/13 08:24:10;;;;;;;;;;;;;;;6.39;60.89;94852.72;5014328;28;1013;-65
2022/12/13 08:26:37;;;;;;;;;;;;;;;6.51;60.48;94855.22;5013863;28;1914;-65
2022/12/13 08:29:03;;;;;;;;;;;;;;;6.72;59.59;94847.88;5014102;28;1015;-65
2022/12/13 08:31:29;;;;;;;;;;;;;;;6.91;59.70;94852.28;5013812;28;1141;-65
2022/12/13 08:33:55;;;;;;;;;;;;;;;7.08;59.40;94848.03;5014205;28;982;-64
2022/12/13 08:36:23;;;;;;;;;;;;;;;7.45;57.39;94846.28;5013712;28;1098;-64
2022/12/13 08:38:52;;;;;;;;;;;;;;;7.92;56.84;94849.59;5013957;28;1251;-65
2022/12/13 08:41:18;;;;;;;;;;;;;;;7.86;55.77;94852.03;4996528;28;1027;-66
2022/12/13 08:43:44;;;;;;;;;;;;;;;7.77;57.04;94851.13;5013904;28;1040;-65
2022/12/13 08:46:10;;;;;;;;;;;;;;;7.62;56.46;94846.31;5013458;28;1996;-65
2022/12/13 08:48:36;;;;;;;;;;;;;;;7.57;57.78;94843.28;5013442;28;1091;-65
2022/12/13 08:51:04;;;;;;;;;;;;;;;7.40;57.68;94838.78;5013957;28;986;-65
2022/12/13 08:53:30;;;;;;;;;;;;;;;6.93;57.02;94841.53;5012483;28;1073;-70
2022/12/13 08:56:06;;;;;;;;;;;;;;;6.34;57.94;94843.53;5013566;28;1238;-65
2022/12/13 08:58:32;;;;;;;;;;;;;;;6.50;58.20;94827.81;5013608;28;1076;-66
2022/12/13 09:00:58;;;;;;;;;;;;;;;6.56;59.45;94821.91;5012708;28;998;-64
2022/12/13 09:03:24;;;;;;;;;;;;;;;6.39;58.75;94825.31;5012416;28;1141;-66
2022/12/13 09:05:50;;;;;;;;;;;;;;;6.62;60.02;94818.69;5018428;28;1914;-66
2022/12/13 09:08:17;;;;;;;;;;;;;;;7.01;58.80;94825.66;5033280;28;1045;-66
2022/12/13 09:10:44;;;;;;;;;;;;;;;7.19;57.72;94828.38;5033239;28;970;-64
2022/12/13 09:13:10;;;;;;;;;;;;;;;7.86;55.88;94823.59;5048517;28;1034;-64
2022/12/13 09:15:38;;;;;;;;;;;;;;;8.42;54.91;94820.72;5032701;28;1236;-63
2022/12/13 09:18:04;;;;;;;;;;;;;;;8.60;53.76;94825.03;5033121;28;1101;-64
2022/12/13 09:20:30;;;;;;;;;;;;;;;8.30;54.45;94810.28;5033206;28;1033;-64
2022/12/13 09:22:56;;;;;;;;;;;;;;;8.32;55.03;94820.81;5015711;28;1013;-63
2022/12/13 09:25:22;;;;;;;;;;;;;;;8.09;54.96;94815.97;5015556;28;1053;-64
2022/12/13 09:27:48;;;;;;;;;;;;;;;7.71;55.61;94820.63;5032521;28;1902;-64
2022/12/13 09:30:14;;;;;;;;;;;;;;;7.61;55.24;94817.22;5032886;28;1453;-63
2022/12/13 09:32:42;;;;;;;;;;;;;;;7.76;56.35;94798.88;5032897;28;1049;-63
2022/12/13 09:35:08;;;;;;;;;;;;;;;8.18;54.45;94803.56;5032952;28;1085;-63
2022/12/13 09:37:34;;;;;;;;;;;;;;;8.73;54.04;94791.78;5032718;28;1074;-63
2022/12/13 09:40:00;;;;;;;;;;;;;;;9.16;51.79;94801.50;5032806;28;1210;-64
2022/12/13 09:42:28;;;;;;;;;;;;;;;9.98;49.14;94803.50;5032735;28;1049;-64
2022/12/13 09:44:59;;;;;;;;;;;;;;;9.86;50.60;94792.28;5015530;28;982;-64
2022/12/13 09:47:37;;;;;;;;;;;;;;;9.10;49.67;94793.28;5032284;28;1902;-64
2022/12/13 09:50:06;;;;;;;;;;;;;;;8.42;51.38;94786.09;5033071;28;942;-65
2022/12/13 09:52:37;;;;;;;;;;;;;;;8.03;53.22;94789.97;5032888;28;966;-64
2022/12/13 09:55:15;;;;;;;;;;;;;;;7.67;54.87;94786.50;5032877;28;1045;-64
2022/12/13 09:57:42;;;;;;;;;;;;;;;7.74;54.70;94783.06;5032505;28;1100;-64
2022/12/13 10:00:12;;;;;;;;;;;;;;;7.78;53.91;94780.94;5049669;28;1342;-64
2022/12/13 10:02:43;;;;;;;;;;;;;;;7.56;54.79;94767.09;5036870;28;1030;-65
2022/12/13 10:05:26;;;;;;;;;;;;;;;7.39;54.31;94759.94;5018843;28;1066;-65
2022/12/13 10:07:54;;;;;;;;;;;;;;;7.48;55.13;94752.91;5051560;28;1113;-64
2022/12/13 10:10:20;;;;;;;;;;;;;;;7.65;54.04;94762.69;5036573;28;1094;-65
2022/12/13 10:12:50;;;;;;;;;;;;;;;8.15;51.96;94755.94;5036430;28;1044;-64
2022/12/13 10:15:18;;;;;;;;;;;;;;;8.75;50.97;94753.31;5036364;28;1523;-65
2022/12/13 10:17:47;;;;;;;;;;;;;;;8.67;51.27;94763.94;5018771;28;1042;-64
2022/12/13 10:20:20;;;;;;;;;;;;;;;8.31;50.75;94756.03;5016293;28;1097;-63
2022/12/13 10:22:46;;;;;;;;;;;;;;;7.90;52.47;94747.75;5016273;28;1038;-63
2022/12/13 10:25:13;;;;;;;;;;;;;;;7.93;52.36;94744.81;5016284;28;1054;-63
2022/12/13 10:27:40;;;;;;;;;;;;;;;8.95;50.20;94748.56;5015849;28;1985;-64
2022/12/13 10:30:11;;;;;;;;;;;;;;;10.93;46.23;94749.44;5016367;28;982;-64
2022/12/13 10:32:57;;;;;;;;;;;;;;;15.45;38.91;94778.91;5016074;28;1242;-64
2022/12/13 10:35:23;;;;;;;;;;;;;;;16.88;34.52;94793.13;5016263;28;1049;-64
2022/12/13 10:37:49;;;;;;;;;;;;;;;16.14;36.82;94776.06;5033195;28;1108;-63
2022/12/13 10:40:32;;;;;;;;;;;;;;;15.47;37.07;94769.59;5035701;28;1147;-64
2022/12/13 10:43:04;;;;;;;;;;;;;;;12.32;42.32;94755.78;5032327;28;1037;-64
2022/12/13 10:45:30;;;;;;;;;;;;;;;10.57;44.92;94746.34;5035799;28;1910;-64
2022/12/13 10:47:56;;;;;;;;;;;;;;;10.72;44.88;94742.81;5035885;28;993;-64
2022/12/13 10:50:24;;;;;;;;;;;;;;;15.03;38.03;94757.38;5035679;28;1128;-64
2022/12/13 10:52:50;;;;;;;;;;;;;;;21.53;30.53;94801.75;5030375;28;1232;-65
2022/12/13 10:55:26;;;;;;;;;;;;;;;26.18;24.78;94825.84;5015796;28;1053;-64
2022/12/13 10:57:53;;;;;;;;;;;;;;;28.54;20.98;94843.28;5015708;28;1026;-64
2022/12/13 11:00:37;;;;;;;;;;;;;;;27.71;21.86;94846.47;5015901;28;1058;-66
2022/12/13 11:03:04;;;;;;;;;;;;;;;23.06;25.04;94826.81;5015518;28;1271;-67
2022/12/13 11:05:32;;;;;;;;;;;;;;;22.39;28.61;94810.06;5015380;28;1971;-68
2022/12/13 11:08:17;;;;;;;;;;;;;;;20.73;28.39;94794.91;5015522;28;1122;-67
2022/12/13 11:10:43;;;;;;;;;;;;;;;17.28;32.50;94773.34;5015606;28;970;-67
2022/12/13 11:13:21;;;;;;;;;;;;;;;20.58;28.40;94767.34;5014789;28;1031;-67
2022/12/13 11:15:52;;;;;;;;;;;;;;;22.83;26.73;94776.78;5015504;28;974;-67
2022/12/13 11:18:20;;;;;;;;;;;;;;;25.61;24.09;94787.22;5014457;28;1195;-69
2022/12/13 11:20:53;;;;;;;;;;;;;;;26.37;22.41;94807.88;5014222;28;1897;-67
2022/12/13 11:23:26;;;;;;;;;;;;;;;25.81;23.84;94796.63;5015274;28;1058;-67
2022/12/13 11:25:58;;;;;;;;;;;;;;;26.69;22.55;94795.91;5014211;28;1906;-67
2022/12/13 11:28:47;;;;;;;;;;;;;;;26.89;22.63;94795.13;5014887;28;1372;-67
2022/12/13 11:31:19;;;;;;;;;;;;;;;26.96;21.02;94800.31;5004746;28;1251;-67
2022/12/13 11:34:01;;;;;;;;;;;;;;;25.89;22.83;94785.97;5014940;28;1081;-65
2022/12/13 11:36:47;;;;;;;;;;;;;;;21.98;25.90;94773.84;5015097;28;982;-63
2022/12/13 11:39:13;;;;;;;;;;;;;;;16.24;32.67;94747.84;5014658;28;1109;-66
2022/12/13 11:41:48;;;;;;;;;;;;;;;13.17;37.64;94727.69;5014734;28;1059;-66
2022/12/13 11:44:27;;;;;;;;;;;;;;;11.79;40.11;94706.63;5014891;28;770;-66
2022/12/13 11:46:55;;;;;;;;;;;;;;;11.35;41.01;94696.56;5014777;28;1910;-65
2022/12/13 11:49:36;;;;;;;;;;;;;;;11.01;42.72;94687.88;4997276;28;1267;-65
2022/12/13 11:52:06;;;;;;;;;;;;;;;10.45;44.17;94693.28;5014702;28;983;-65
2022/12/13 11:54:36;;;;;;;;;;;;;;;10.25;44.55;94679.44;5014814;28;1078;-66
2022/12/13 11:57:08;;;;;;;;;;;;;;;10.24;45.27;94677.75;5014708;28;1125;-66
2022/12/13 11:59:49;;;;;;;;;;;;;;;10.06;45.47;94680.63;5014502;28;1228;-66
2022/12/13 12:02:20;;;;;;;;;;;;;;;9.64;46.66;94686.19;5014712;28;978;-65
2022/12/13 12:04:53;;;;;;;;;;;;;;;9.26;47.99;94675.13;5014435;28;1009;-66
2022/12/13 12:08:02;;;;;;;;;;;;;;;9.13;48.83;94673.78;5007100;28;1972;-67
2022/12/13 12:10:32;;;;;;;;;;;;;;;9.06;49.00;94661.28;5011616;28;1277;-66
2022/12/13 12:13:16;;;;;;;;;;;;;;;9.21;48.79;94672.13;5014377;28;1033;-65
2022/12/13 12:15:51;;;;;;;;;;;;;;;9.17;49.05;94677.78;5014464;28;1122;-65
2022/12/13 12:18:17;;;;;;;;;;;;;;;8.95;49.79;94668.59;5013160;28;1113;-66
2022/12/13 12:20:47;;;;;;;;;;;;;;;8.70;48.64;94674.84;5014046;28;1260;-66
2022/12/13 12:23:22;;;;;;;;;;;;;;;8.75;50.23;94684.00;5013418;28;1117;-66
2022/12/13 12:25:52;;;;;;;;;;;;;;;8.99;50.05;94685.06;5014259;28;1992;-66
2022/12/13 12:28:31;;;;;;;;;;;;;;;8.98;51.47;94692.25;5014112;28;1034;-66
2022/12/13 12:31:17;;;;;;;;;;;;;;;8.92;50.25;94705.41;5013741;28;1141;-66
2022/12/13 12:33:56;;;;;;;;;;;;;;;8.56;51.30;94694.94;5013767;28;1332;-66
2022/12/13 12:36:31;;;;;;;;;;;;;;;8.58;51.24;94693.78;4996597;28;1026;-66
2022/12/13 12:39:23;;;;;;;;;;;;;;;8.94;50.94;94698.06;5014055;28;1252;-66
2022/12/13 12:42:08;;;;;;;;;;;;;;;8.97;51.15;94711.06;5013601;28;1050;-65
2022/12/13 12:44:34;;;;;;;;;;;;;;;8.29;52.19;94714.56;5013739;28;1043;-66
2022/12/13 12:47:15;;;;;;;;;;;;;;;8.02;52.89;94711.94;5013722;28;2359;-66
2022/12/13 12:49:59;;;;;;;;;;;;;;;7.93;53.06;94717.31;5013727;28;1117;-66
2022/12/13 12:52:44;;;;;;;;;;;;;;;8.00;52.08;94727.19;5013502;28;1230;-66
2022/12/13 12:55:10;;;;;;;;;;;;;;;8.08;51.37;94714.94;5013989;28;1046;-66
2022/12/13 12:57:40;;;;;;;;;;;;;;;8.05;52.10;94717.94;5013804;28;1026;-66
2022/12/13 13:00:11;;;;;;;;;;;;;;;8.11;51.32;94722.63;5013761;28;1056;-67
2022/12/13 13:02:40;;;;;;;;;;;;;;;8.01;52.06;94717.41;5013341;28;1223;-67
2022/12/13 13:05:12;;;;;;;;;;;;;;;7.91;50.46;94714.84;5013544;28;1105;-67
2022/12/13 13:07:42;;;;;;;;;;;;;;;7.88;51.43;94709.00;4996026;28;1990;-67
2022/12/13 13:10:09;;;;;;;;;;;;;;;7.71;51.77;94697.38;5013397;28;1217;-67
2022/12/13 13:12:37;;;;;;;;;;;;;;;7.72;52.50;94701.69;5013139;28;1177;-66
2022/12/13 13:15:22;;;;;;;;;;;;;;;7.81;53.92;94706.09;5013512;28;1237;-67
2022/12/13 13:17:48;;;;;;;;;;;;;;;7.91;52.60;94717.50;5013481;28;1080;-66
2022/12/13 13:20:19;;;;;;;;;;;;;;;7.87;53.40;94721.44;5013510;28;1102;-67
2022/12/13 13:22:46;;;;;;;;;;;;;;;7.91;53.14;94720.16;5013287;28;1417;-67